Time;durP1;ratioP1;P1;durP2;ratioP2;P2;SDS_P1;SDS_P2;PMS_P1;PMS_P2;Temp;Humidity;BMP_temperature;BMP_pressure;BME280_temperature;BME280_humidity;BME280_pressure;Samples;Min_cycle;Max_cycle;Signal;HPM_P1;HPM_P2
2021/12/15 00:00:09;;;;;;;97.78;47.90;;;;;;;7.34;100.00;102761.41;5073332;28;20021;-68
2021/12/15 00:02:34;;;;;;;100.55;49.00;;;;;;;7.35;100.00;102762.31;5073150;28;20031;-67
2021/12/15 00:05:01;;;;;;;94.15;46.42;;;;;;;7.35;100.00;102771.09;5073352;28;20025;-67
2021/12/15 00:07:26;;;;;;;98.32;46.33;;;;;;;7.33;100.00;102771.00;5072909;28;20356;-67
2021/12/15 00:09:53;;;;;;;99.43;47.00;;;;;;;7.37;100.00;102768.53;5073125;28;20077;-67
2021/12/15 00:12:18;;;;;;;95.63;45.65;;;;;;;7.35;100.00;102759.66;5073089;28;20108;-67
2021/12/15 00:14:45;;;;;;;97.65;46.35;;;;;;;7.34;100.00;102764.03;5072864;28;20099;-66
2021/12/15 00:17:10;;;;;;;100.18;46.15;;;;;;;7.31;100.00;102753.34;5072824;28;20106;-66
2021/12/15 00:19:37;;;;;;;105.22;48.60;;;;;;;7.29;100.00;102757.63;5073229;28;20472;-66
2021/12/15 00:22:04;;;;;;;102.43;47.88;;;;;;;7.32;100.00;102757.78;5073058;28;20471;-66
2021/12/15 00:24:29;;;;;;;106.53;50.60;;;;;;;7.29;100.00;102755.91;5072760;28;20452;-67
2021/12/15 00:26:56;;;;;;;108.20;48.35;;;;;;;7.27;100.00;102759.31;5072894;28;20031;-67
2021/12/15 00:29:24;;;;;;;101.72;47.83;;;;;;;7.27;100.00;102761.94;5072793;28;20067;-66
2021/12/15 00:31:50;;;;;;;104.90;49.10;;;;;;;7.27;100.00;102762.81;5072687;28;20096;-67
2021/12/15 00:34:16;;;;;;;107.63;48.80;;;;;;;7.27;100.00;102754.03;5073034;28;20028;-66
2021/12/15 00:36:44;;;;;;;101.93;45.72;;;;;;;7.28;100.00;102751.50;5072684;28;20028;-67
2021/12/15 00:39:12;;;;;;;103.43;46.88;;;;;;;7.28;100.00;102754.13;5072645;28;20078;-67
2021/12/15 00:41:39;;;;;;;106.15;48.97;;;;;;;7.28;100.00;102754.13;5072665;28;20024;-67
2021/12/15 00:44:05;;;;;;;107.10;48.15;;;;;;;7.32;100.00;102756.06;5072686;28;20467;-67
2021/12/15 00:46:31;;;;;;;104.00;48.58;;;;;;;7.29;100.00;102753.28;5072892;28;20070;-66
2021/12/15 00:48:58;;;;;;;105.90;49.05;;;;;;;7.31;100.00;102749.00;5072959;28;20548;-67
2021/12/15 00:51:23;;;;;;;105.13;49.17;;;;;;;7.30;100.00;102756.81;5072542;28;20048;-67
2021/12/15 00:53:49;;;;;;;98.35;44.67;;;;;;;7.31;100.00;102753.34;5072753;28;20535;-67
2021/12/15 00:56:14;;;;;;;103.32;46.28;;;;;;;7.31;100.00;102749.00;5072727;28;20101;-66
2021/12/15 00:58:39;;;;;;;100.25;45.47;;;;;;;7.32;100.00;102745.56;5072120;28;20127;-67
2021/12/15 01:01:05;;;;;;;98.03;44.38;;;;;;;7.29;100.00;102750.63;5072704;28;20053;-67
2021/12/15 01:03:31;;;;;;;99.20;44.33;;;;;;;7.30;100.00;102747.19;5072701;28;20032;-67
2021/12/15 01:06:05;;;;;;;95.82;44.50;;;;;;;7.31;100.00;102743.75;5072332;28;20455;-67
2021/12/15 01:08:32;;;;;;;93.40;45.28;;;;;;;7.34;100.00;102753.50;5072459;28;20025;-66
2021/12/15 01:21:46;;;;;;;89.25;43.53;;;;;;;7.37;100.00;102761.56;5074266;28;20040;-67
2021/12/15 01:24:12;;;;;;;89.90;43.42;;;;;;;7.37;100.00;102764.19;5076333;28;20024;-66
2021/12/15 01:26:37;;;;;;;92.75;44.72;;;;;;;7.41;100.00;102759.94;5076280;28;20107;-67
2021/12/15 01:29:03;;;;;;;94.32;45.63;;;;;;;7.41;100.00;102765.22;5074937;28;20025;-67
2021/12/15 01:31:28;;;;;;;89.53;43.78;;;;;;;7.39;100.00;102759.00;5076388;28;20028;-67
2021/12/15 01:33:54;;;;;;;92.70;43.05;;;;;;;7.38;100.00;102759.81;5076509;28;20024;-66
2021/12/15 01:36:19;;;;;;;90.75;44.08;;;;;;;7.38;100.00;102762.44;5075814;28;20025;-67
2021/12/15 01:38:46;;;;;;;95.68;45.42;;;;;;;7.38;100.00;102760.69;5075889;28;20126;-67
2021/12/15 01:41:19;;;;;;;89.78;41.95;;;;;;;7.40;100.00;102764.31;5076107;28;20107;-67
2021/12/15 01:49:20;;;;;;;92.22;45.38;;;;;;;7.41;100.00;102762.59;5073918;28;20090;-66
2021/12/15 01:51:45;;;;;;;91.38;44.83;;;;;;;7.41;100.00;102765.22;5075791;28;20025;-67
2021/12/15 01:54:13;;;;;;;89.47;43.10;;;;;;;7.41;100.00;102765.22;5076172;28;20035;-66
2021/12/15 01:56:39;;;;;;;93.78;45.80;;;;;;;7.39;100.00;102764.25;5075599;28;20064;-67
2021/12/15 01:59:06;;;;;;;89.20;42.85;;;;;;;7.44;100.00;102765.34;5075294;28;20056;-68
2021/12/15 02:01:31;;;;;;;91.88;43.55;;;;;;;7.40;100.00;102772.22;5075708;28;20024;-67
2021/12/15 02:03:57;;;;;;;88.10;42.60;;;;;;;7.42;100.00;102769.66;5075453;28;20035;-67
2021/12/15 02:06:23;;;;;;;93.80;45.65;;;;;;;7.43;100.00;102772.38;5075721;28;20035;-67
2021/12/15 02:08:49;;;;;;;91.72;43.28;;;;;;;7.42;100.00;102780.19;5075567;28;20089;-67
2021/12/15 02:11:15;;;;;;;89.70;42.92;;;;;;;7.44;100.00;102782.06;5075333;28;20044;-67
2021/12/15 02:13:40;;;;;;;89.28;42.67;;;;;;;7.44;100.00;102779.44;5075591;28;20111;-68
2021/12/15 02:16:07;;;;;;;92.70;44.05;;;;;;;7.43;100.00;102792.53;5075493;28;20107;-67
2021/12/15 02:18:35;;;;;;;92.18;43.38;;;;;;;7.43;100.00;102792.53;5073831;28;20040;-67
2021/12/15 02:21:08;;;;;;;93.03;44.80;;;;;;;7.45;100.00;102788.22;5075524;28;20028;-67
2021/12/15 02:23:39;;;;;;;;;;;;;;;7.49;100.00;102785.81;5075769;28;20017;-67
2021/12/15 02:26:11;;;;;;;96.35;44.72;;;;;;;7.48;100.00;102788.38;5075085;28;19915;-67
2021/12/15 02:28:38;;;;;;;88.07;43.47;;;;;;;7.47;100.00;102776.94;5071843;28;20024;-67
2021/12/15 02:39:10;;;;;;;91.60;43.28;;;;;;;7.49;100.00;102784.91;5034144;28;20068;-68
2021/12/15 02:41:37;;;;;;;90.13;43.50;;;;;;;7.48;100.00;102784.03;5052581;28;20025;-68
2021/12/15 02:44:10;;;;;;;84.43;41.17;;;;;;;7.52;100.00;102786.81;5048458;28;20036;-68
2021/12/15 02:46:38;;;;;;;93.22;43.15;;;;;;;7.48;100.00;102777.84;5048940;28;20025;-67
2021/12/15 02:49:08;;;;;;;90.00;41.20;;;;;;;7.51;100.00;102783.25;5048821;28;20062;-67
2021/12/15 02:51:34;;;;;;;87.05;43.03;;;;;;;7.51;100.00;102780.63;5048394;28;20112;-67
2021/12/15 02:54:01;;;;;;;87.45;41.30;;;;;;;7.51;100.00;102783.25;5052288;28;20511;-67
2021/12/15 02:56:27;;;;;;;86.20;41.65;;;;;;;7.51;100.00;102783.25;5052559;28;20175;-66
2021/12/15 02:58:59;;;;;;;89.20;41.28;;;;;;;7.54;100.00;102783.38;5052095;28;20076;-68
2021/12/15 03:01:51;;;;;;;88.47;41.90;;;;;;;7.54;100.00;102788.66;5052238;28;20040;-68
2021/12/15 03:06:56;;;;;;;85.28;39.47;;;;;;;7.50;100.00;102778.84;5052091;28;20037;-70
2021/12/15 03:15:19;;;;;;;87.20;41.92;;;;;;;7.53;100.00;102778.06;5052397;28;20025;-70
2021/12/15 03:18:14;;;;;;;88.57;41.72;;;;;;;7.52;100.00;102778.91;5051850;28;20052;-70
2021/12/15 03:20:46;;;;;;;89.72;41.60;;;;;;;7.49;100.00;102782.28;5060431;28;20033;-70
2021/12/15 03:23:13;;;;;;;90.43;42.55;;;;;;;7.49;100.00;102779.66;5063052;28;20029;-69
2021/12/15 03:25:38;;;;;;;85.30;40.28;;;;;;;7.51;100.00;102772.72;5060111;28;20099;-68
2021/12/15 03:36:09;;;;;;;87.75;41.80;;;;;;;7.57;100.00;102777.38;5060001;28;20037;-78
2021/12/15 03:38:36;;;;;;;87.18;42.50;;;;;;;7.52;100.00;102776.28;5055270;28;20120;-76
2021/12/15 03:41:04;;;;;;;83.90;40.22;;;;;;;7.54;100.00;102782.50;5059745;28;20056;-77
2021/12/15 03:43:31;;;;;;;82.93;39.35;;;;;;;7.58;100.00;102777.44;5062208;28;20044;-79
2021/12/15 03:46:03;;;;;;;82.63;38.83;;;;;;;7.54;100.00;102782.50;5060799;28;20043;-75
2021/12/15 03:48:32;;;;;;;82.60;39.22;;;;;;;7.50;100.00;102792.00;5062453;28;20064;-75
2021/12/15 03:50:58;;;;;;;82.85;39.25;;;;;;;7.49;100.00;102782.28;5060283;28;20033;-71
2021/12/15 03:53:25;;;;;;;88.65;41.10;;;;;;;7.48;100.00;102777.84;5072452;28;20023;-77
2021/12/15 03:55:51;;;;;;;87.47;39.80;;;;;;;7.48;100.00;102789.28;5073448;28;20024;-67
2021/12/15 03:58:21;;;;;;;88.70;40.85;;;;;;;7.47;100.00;102786.56;5073040;28;20505;-67
2021/12/15 04:00:53;;;;;;;86.18;40.20;;;;;;;7.46;100.00;102800.56;5073313;28;20077;-67
2021/12/15 04:03:20;;;;;;;89.68;42.10;;;;;;;7.47;100.00;102802.34;5073195;28;20506;-67
2021/12/15 04:05:45;;;;;;;86.43;39.13;;;;;;;7.48;100.00;102796.25;5073169;28;20059;-66
2021/12/15 04:08:11;;;;;;;81.45;39.47;;;;;;;7.51;100.00;102793.78;5073377;28;20056;-67
2021/12/15 04:10:36;;;;;;;83.30;38.97;;;;;;;7.50;100.00;102795.53;5073406;28;20453;-67
2021/12/15 04:13:02;;;;;;;82.97;38.65;;;;;;;7.54;100.00;102793.03;5073328;28;20021;-66
2021/12/15 04:15:30;;;;;;;85.05;39.35;;;;;;;7.54;100.00;102793.03;5072907;28;20031;-67
2021/12/15 04:18:02;;;;;;;75.40;37.40;;;;;;;7.59;100.00;102794.16;5072974;28;20029;-66
2021/12/15 04:20:30;;;;;;;74.80;37.27;;;;;;;7.59;100.00;102796.78;5073250;28;20384;-66
2021/12/15 04:22:56;;;;;;;79.13;38.13;;;;;;;7.57;100.00;102798.44;5073055;28;20271;-67
2021/12/15 04:25:25;;;;;;;77.03;38.30;;;;;;;7.56;100.00;102794.91;5073034;28;20020;-67
2021/12/15 04:27:54;;;;;;;75.88;37.92;;;;;;;7.58;100.00;102798.50;5072764;28;20031;-67
2021/12/15 04:30:21;;;;;;;76.22;37.03;;;;;;;7.57;100.00;102804.63;5072701;28;20028;-67
2021/12/15 04:32:48;;;;;;;73.43;37.35;;;;;;;7.57;100.00;102803.69;5072873;28;20047;-67
2021/12/15 04:35:14;;;;;;;74.88;37.78;;;;;;;7.57;100.00;102798.44;5072715;28;20115;-67
2021/12/15 04:37:42;;;;;;;75.50;37.35;;;;;;;7.60;100.00;102803.84;5072725;28;20115;-67
2021/12/15 04:40:11;;;;;;;75.22;38.30;;;;;;;7.59;100.00;102818.75;5073274;28;20020;-67
2021/12/15 04:42:40;;;;;;;72.75;36.20;;;;;;;7.57;100.00;102815.16;5068915;28;20070;-67
2021/12/15 04:45:07;;;;;;;73.97;37.65;;;;;;;7.59;100.00;102816.13;5072646;28;20060;-68
2021/12/15 04:47:33;;;;;;;74.85;37.08;;;;;;;7.61;100.00;102811.81;5072422;28;20465;-67
2021/12/15 04:49:59;;;;;;;74.72;37.92;;;;;;;7.61;100.00;102817.06;5071725;28;20094;-68
2021/12/15 04:52:30;;;;;;;70.07;36.17;;;;;;;7.64;100.00;102816.31;5072478;28;20032;-68
2021/12/15 04:54:59;;;;;;;70.93;36.53;;;;;;;7.63;100.00;102815.44;5072552;28;20024;-67
2021/12/15 04:57:24;;;;;;;75.13;38.53;;;;;;;7.61;100.00;102813.56;5072678;28;20082;-69
2021/12/15 04:59:51;;;;;;;68.40;35.25;;;;;;;7.59;100.00;102820.50;5072197;28;20438;-67
2021/12/15 05:02:18;;;;;;;70.15;35.80;;;;;;;7.60;100.00;102824.91;5072121;28;20024;-69
2021/12/15 05:04:44;;;;;;;72.32;37.15;;;;;;;7.60;100.00;102823.19;5072778;28;20025;-70
2021/12/15 05:07:10;;;;;;;72.50;35.72;;;;;;;7.63;100.00;102825.03;5072448;28;20025;-69
2021/12/15 05:09:36;;;;;;;67.15;34.42;;;;;;;7.66;100.00;102831.38;5072591;28;20028;-77
2021/12/15 05:12:02;;;;;;;67.75;35.35;;;;;;;7.62;100.00;102826.78;5072500;28;20024;-69
2021/12/15 05:14:27;;;;;;;70.13;35.78;;;;;;;7.62;100.00;102824.16;5072167;28;20040;-75
2021/12/15 05:16:54;;;;;;;72.55;36.60;;;;;;;7.62;100.00;102823.25;5072293;28;20498;-72
2021/12/15 05:19:20;;;;;;;68.78;35.08;;;;;;;7.61;100.00;102824.09;5105095;28;20135;-69
2021/12/15 05:21:48;;;;;;;66.60;33.75;;;;;;;7.60;100.00;102831.09;5072412;28;20108;-66
2021/12/15 05:24:30;;;;;;;70.03;35.22;;;;;;;7.58;100.00;102839.72;5072454;28;20032;-66
2021/12/15 05:26:59;;;;;;;69.55;35.45;;;;;;;7.57;100.00;102830.94;5072260;28;20056;-71
2021/12/15 05:29:24;;;;;;;67.93;33.63;;;;;;;7.57;100.00;102832.66;5072315;28;20111;-70
2021/12/15 05:31:50;;;;;;;67.45;35.20;;;;;;;7.60;100.00;102840.69;5072353;28;20143;-67
2021/12/15 05:34:15;;;;;;;66.30;34.05;;;;;;;7.61;100.00;102830.22;5072272;28;20028;-69
2021/12/15 05:36:40;;;;;;;67.38;33.13;;;;;;;7.59;100.00;102837.16;5072073;28;20050;-78
2021/12/15 05:39:06;;;;;;;65.93;32.08;;;;;;;7.63;100.00;102839.13;5072257;28;20036;-77
2021/12/15 05:41:34;;;;;;;66.38;33.25;;;;;;;7.61;100.00;102837.25;5072124;28;20475;-71
2021/12/15 05:44:00;;;;;;;69.30;32.90;;;;;;;7.62;100.00;102834.69;5072057;28;20036;-77
2021/12/15 05:46:26;;;;;;;67.70;35.17;;;;;;;7.61;100.00;102838.13;5071998;28;20024;-75
2021/12/15 05:48:51;;;;;;;63.80;32.50;;;;;;;7.63;100.00;102841.75;5072212;28;20426;-75
2021/12/15 05:51:16;;;;;;;66.55;33.40;;;;;;;7.70;100.00;102842.03;5071976;28;20495;-78
2021/12/15 05:53:43;;;;;;;66.82;34.33;;;;;;;7.68;100.00;102839.34;5072242;28;20059;-75
2021/12/15 05:56:10;;;;;;;66.13;33.13;;;;;;;7.62;100.00;102832.06;5072114;28;20064;-70
2021/12/15 05:58:37;;;;;;;69.10;34.10;;;;;;;7.65;100.00;102840.09;5067617;28;20059;-77
2021/12/15 06:01:04;;;;;;;68.68;34.03;;;;;;;7.64;100.00;102848.81;5071724;28;20028;-76
2021/12/15 06:03:29;;;;;;;69.65;34.80;;;;;;;7.62;100.00;102839.94;5071829;28;20025;-78
2021/12/15 06:05:54;;;;;;;71.78;35.00;;;;;;;7.62;100.00;102842.56;5073911;28;20032;-76
2021/12/15 06:08:20;;;;;;;75.63;35.47;;;;;;;7.66;100.00;102843.66;5075653;28;20047;-78
2021/12/15 06:10:45;;;;;;;72.50;35.30;;;;;;;7.63;100.00;102839.13;5075656;28;20418;-78
2021/12/15 06:13:12;;;;;;;69.25;34.92;;;;;;;7.65;100.00;102841.84;5075549;28;20475;-74
2021/12/15 06:15:40;;;;;;;74.57;34.97;;;;;;;7.67;100.00;102840.16;5075128;28;20047;-76
2021/12/15 06:18:13;;;;;;;76.55;36.50;;;;;;;7.61;100.00;102840.75;5075580;28;20031;-76
2021/12/15 06:20:41;;;;;;;74.68;35.35;;;;;;;7.61;100.00;102846.03;5071777;28;20043;-75
2021/12/15 06:23:12;;;;;;;78.60;35.72;;;;;;;7.62;100.00;102849.59;5071405;28;20099;-77
2021/12/15 06:25:39;;;;;;;76.22;34.95;;;;;;;7.61;100.00;102853.94;5071496;28;20123;-77
2021/12/15 06:28:06;;;;;;;76.15;36.22;;;;;;;7.61;100.00;102853.94;5074109;28;20031;-70
2021/12/15 06:30:32;;;;;;;81.05;37.03;;;;;;;7.62;100.00;102855.75;5073925;28;20640;-78
2021/12/15 06:32:58;;;;;;;82.60;36.67;;;;;;;7.61;100.00;102859.19;5073475;28;20464;-78
2021/12/15 06:35:23;;;;;;;85.57;39.53;;;;;;;7.61;100.00;102863.56;5073496;28;20040;-77
2021/12/15 06:37:49;;;;;;;81.93;37.65;;;;;;;7.59;100.00;102865.22;5073382;28;20115;-73
2021/12/15 06:40:14;;;;;;;82.53;37.50;;;;;;;7.62;100.00;102857.47;5073948;28;20464;-75
2021/12/15 06:42:41;;;;;;;84.88;39.00;;;;;;;7.62;100.00;102863.63;5074985;28;20444;-76
2021/12/15 06:45:11;;;;;;;79.28;37.65;;;;;;;7.63;100.00;102872.44;5077020;28;20025;-78
2021/12/15 06:58:29;;;;;;;79.38;37.25;;;;;;;7.67;100.00;102867.41;5072302;28;20153;-68
2021/12/15 07:00:58;;;;;;;86.55;37.40;;;;;;;7.64;100.00;102867.22;5073030;28;20036;-68
2021/12/15 07:03:25;;;;;;;84.30;37.78;;;;;;;7.66;100.00;102870.88;5072849;28;20417;-67
2021/12/15 07:05:52;;;;;;;86.88;38.20;;;;;;;7.65;100.00;102871.69;5071505;28;20154;-68
2021/12/15 07:08:19;;;;;;;89.57;39.88;;;;;;;7.63;100.00;102878.63;5071839;28;20166;-69
2021/12/15 07:10:48;;;;;;;87.22;36.80;;;;;;;7.67;100.00;102877.94;5069460;28;20035;-68
2021/12/15 07:13:16;;;;;;;88.45;37.50;;;;;;;7.71;100.00;102889.50;5071494;28;20383;-67
2021/12/15 07:15:43;;;;;;;82.80;36.53;;;;;;;7.74;100.00;102888.75;5071939;28;20020;-67
2021/12/15 07:18:11;;;;;;;86.18;37.80;;;;;;;7.69;100.00;102883.28;5072340;28;20032;-69
2021/12/15 07:20:49;;;;;;;92.65;39.22;;;;;;;7.70;100.00;102892.06;5072917;28;20024;-68
2021/12/15 07:23:21;;;;;;;88.75;38.80;;;;;;;7.71;100.00;102880.72;5072793;28;20085;-67
2021/12/15 07:25:49;;;;;;;93.70;38.95;;;;;;;7.66;100.00;102889.28;5068939;28;20074;-70
2021/12/15 07:28:20;;;;;;;90.10;38.30;;;;;;;7.66;100.00;102894.56;5072160;28;20025;-67
2021/12/15 07:30:47;;;;;;;93.03;39.45;;;;;;;7.67;100.00;102900.72;5072581;28;20098;-68
2021/12/15 07:33:13;;;;;;;90.95;38.45;;;;;;;7.69;100.00;102891.19;5072564;28;20043;-71
2021/12/15 07:35:39;;;;;;;90.07;39.33;;;;;;;7.69;100.00;102893.81;5071569;28;20037;-75
2021/12/15 07:38:06;;;;;;;92.68;39.47;;;;;;;7.70;100.00;102890.31;5071783;28;20032;-71
2021/12/15 07:40:33;;;;;;;89.72;38.38;;;;;;;7.73;100.00;102895.75;5071784;28;20085;-68
2021/12/15 07:45:32;;;;;;;93.85;40.05;;;;;;;7.77;100.00;102899.44;5072096;28;20037;-67
2021/12/15 07:47:59;;;;;;;97.13;41.10;;;;;;;7.73;100.00;102900.13;5072362;28;20183;-68
2021/12/15 07:50:27;;;;;;;89.72;38.17;;;;;;;7.77;100.00;102896.81;5072183;28;20023;-68
2021/12/15 07:52:53;;;;;;;88.13;37.28;;;;;;;7.75;100.00;102903.75;5071625;28;20081;-68
2021/12/15 07:55:20;;;;;;;99.68;39.83;;;;;;;7.74;100.00;102904.56;5071057;28;20032;-67
2021/12/15 07:57:46;;;;;;;92.00;37.08;;;;;;;7.75;100.00;102898.47;5071884;28;20028;-81
2021/12/15 08:00:13;;;;;;;93.45;39.90;;;;;;;7.77;100.00;102902.97;5073170;28;20028;-79
2021/12/15 08:02:39;;;;;;;96.05;40.40;;;;;;;7.80;100.00;102900.47;5071498;28;20497;-76
2021/12/15 08:05:06;;;;;;;96.05;40.03;;;;;;;7.78;100.00;102906.53;5071560;28;20028;-68
2021/12/15 08:07:31;;;;;;;102.90;40.78;;;;;;;7.76;100.00;102905.53;5070685;28;20514;-68
2021/12/15 08:09:57;;;;;;;102.82;41.85;;;;;;;7.74;100.00;102910.72;5071234;28;20069;-65
2021/12/15 08:12:22;;;;;;;98.93;40.95;;;;;;;7.76;100.00;102916.06;5071628;28;20112;-66
2021/12/15 08:14:48;;;;;;;93.68;38.40;;;;;;;7.78;100.00;102917.94;5071474;28;20032;-67
2021/12/15 08:17:15;;;;;;;96.25;39.67;;;;;;;7.78;100.00;102914.41;5071500;28;20067;-66
2021/12/15 08:19:40;;;;;;;103.75;42.40;;;;;;;7.79;100.00;102918.84;5071405;28;20475;-67
2021/12/15 08:22:06;;;;;;;92.65;38.45;;;;;;;7.82;100.00;102916.34;5070769;28;20029;-70
2021/12/15 08:24:31;;;;;;;101.95;41.20;;;;;;;7.83;100.00;102911.19;5070712;28;20021;-67
2021/12/15 08:26:56;;;;;;;96.85;41.85;;;;;;;7.88;100.00;102915.75;5071257;28;20040;-67
2021/12/15 08:29:22;;;;;;;91.47;40.70;;;;;;;7.87;100.00;102921.88;5070990;28;20024;-66
2021/12/15 08:31:47;;;;;;;85.68;38.88;;;;;;;7.90;100.00;102920.25;5071826;28;20055;-67
2021/12/15 08:34:13;;;;;;;91.97;40.67;;;;;;;7.89;100.00;102917.56;5071017;28;20024;-68
2021/12/15 08:36:39;;;;;;;100.10;42.70;;;;;;;7.85;100.00;102925.31;5071071;28;20081;-67
2021/12/15 08:39:07;;;;;;;92.25;39.30;;;;;;;7.87;100.00;102920.13;5071274;28;20081;-67
2021/12/15 08:41:32;;;;;;;94.20;41.35;;;;;;;7.88;100.00;102921.94;5071212;28;20476;-66
2021/12/15 08:43:59;;;;;;;91.65;39.60;;;;;;;7.88;100.00;102918.38;5071321;28;20073;-70
2021/12/15 08:46:28;;;;;;;97.85;42.72;;;;;;;7.88;100.00;102923.66;5069459;28;20506;-68
2021/12/15 08:48:54;;;;;;;95.95;41.05;;;;;;;7.91;100.00;102921.19;5068169;28;20032;-68
2021/12/15 08:51:26;;;;;;;90.38;40.05;;;;;;;7.92;100.00;102928.25;5071015;28;20481;-68
2021/12/15 08:53:54;;;;;;;92.35;40.50;;;;;;;7.97;100.00;102927.63;5071299;28;20499;-67
2021/12/15 08:56:20;;;;;;;96.22;43.25;;;;;;;7.94;100.00;102911.69;5102674;28;20103;-68
2021/12/15 08:58:45;;;;;;;91.15;41.45;;;;;;;7.96;100.00;102922.28;5070826;28;20119;-65
2021/12/15 09:01:11;;;;;;;88.97;40.83;;;;;;;8.01;100.00;102928.69;5070958;28;20040;-66
2021/12/15 09:03:38;;;;;;;88.95;39.58;;;;;;;7.97;100.00;102927.63;5070772;28;20036;-67
2021/12/15 09:06:05;;;;;;;88.00;39.53;;;;;;;8.02;100.00;102941.03;5069321;28;20391;-70
2021/12/15 09:08:31;;;;;;;90.80;41.28;;;;;;;7.99;100.00;102927.72;5073397;28;20106;-80
2021/12/15 09:11:01;;;;;;;93.32;43.65;;;;;;;7.98;100.00;102934.72;5071985;28;20468;-79
2021/12/15 09:13:30;;;;;;;90.40;40.78;;;;;;;8.03;100.00;102943.72;5068319;28;20442;-79
2021/12/15 09:15:58;;;;;;;87.38;38.97;;;;;;;8.03;100.00;102937.56;5070071;28;20029;-82
2021/12/15 09:18:23;;;;;;;86.13;40.90;;;;;;;8.07;100.00;102934.25;5071435;28;20029;-80
2021/12/15 09:20:49;;;;;;;86.95;40.30;;;;;;;8.06;100.00;102928.91;5072817;28;20021;-82
2021/12/15 09:23:17;;;;;;;88.35;40.00;;;;;;;8.10;100.00;102944.03;5070972;28;20513;-75
2021/12/15 09:25:44;;;;;;;85.60;40.28;;;;;;;8.12;100.00;102947.66;5069305;28;20372;-69
2021/12/15 09:28:10;;;;;;;87.43;40.03;;;;;;;8.10;100.00;102942.31;5069323;28;20082;-70
2021/12/15 09:30:43;;;;;;;88.85;41.05;;;;;;;8.12;100.00;102953.81;5067686;28;20025;-70
2021/12/15 09:33:13;;;;;;;84.88;40.10;;;;;;;8.22;100.00;102960.44;5068039;28;20058;-75
2021/12/15 09:35:39;;;;;;;80.57;37.58;;;;;;;8.25;100.00;102959.69;5069819;28;20487;-70
2021/12/15 09:38:04;;;;;;;82.63;40.08;;;;;;;8.20;100.00;102957.72;5069958;28;20032;-71
2021/12/15 09:40:29;;;;;;;82.57;40.85;;;;;;;8.21;100.00;102955.97;5070895;28;20029;-69
2021/12/15 09:42:56;;;;;;;79.70;37.42;;;;;;;8.24;100.00;102960.50;5072381;28;20432;-69
2021/12/15 10:05:01;;;;;;;82.53;41.28;;;;;;;8.48;100.00;102963.44;5070537;28;20043;-68
2021/12/15 10:10:48;;;;;;;78.78;40.05;;;;;;;8.62;100.00;102971.97;5072190;28;20086;-68
2021/12/15 10:19:20;;;;;;;73.80;40.00;;;;;;;8.70;100.00;102971.47;5074034;28;20078;-69
2021/12/15 10:21:56;;;;;;;77.65;40.17;;;;;;;8.79;100.00;102967.47;5074988;28;20020;-67
2021/12/15 10:24:34;;;;;;;72.75;40.63;;;;;;;8.84;100.00;102973.84;5075110;28;20058;-67
2021/12/15 10:27:03;;;;;;;73.20;40.60;;;;;;;8.86;100.00;102980.13;5067881;28;20083;-69
2021/12/15 10:29:28;;;;;;;72.28;40.00;;;;;;;8.89;100.00;102967.94;5071097;28;20383;-72
2021/12/15 10:32:04;;;;;;;71.63;39.85;;;;;;;8.91;100.00;102978.56;5072989;28;20032;-68
2021/12/15 10:34:30;;;;;;;71.95;40.53;;;;;;;8.90;100.00;102976.78;5070670;28;20028;-71
2021/12/15 10:36:56;;;;;;;71.85;39.58;;;;;;;8.88;100.00;102976.72;5072640;28;20360;-69
2021/12/15 10:39:22;;;;;;;72.35;40.30;;;;;;;8.90;100.00;102969.75;5072869;28;20452;-70
2021/12/15 10:41:51;;;;;;;70.95;38.85;;;;;;;8.93;100.00;102971.63;5072376;28;20379;-69
2021/12/15 10:44:22;;;;;;;70.15;39.92;;;;;;;8.95;100.00;102967.31;5071966;28;20031;-71
2021/12/15 10:46:53;;;;;;;75.18;42.28;;;;;;;8.95;100.00;102969.97;5072044;28;20480;-70
2021/12/15 10:49:31;;;;;;;70.15;40.78;;;;;;;8.99;100.00;102964.00;5071383;28;20472;-67
2021/12/15 10:52:04;;;;;;;70.85;40.85;;;;;;;8.99;100.00;102977.19;5068450;28;20479;-69
2021/12/15 10:54:31;;;;;;;72.28;40.13;;;;;;;8.97;100.00;102976.22;5068751;28;20487;-69
2021/12/15 10:57:05;;;;;;;72.80;40.55;;;;;;;8.97;100.00;102981.50;5072274;28;20024;-67
2021/12/15 10:59:34;;;;;;;71.88;40.65;;;;;;;9.01;100.00;102980.81;5071652;28;20041;-70
2021/12/15 11:02:01;;;;;;;70.65;40.20;;;;;;;9.05;100.00;102982.72;5069940;28;20086;-67
2021/12/15 11:04:37;;;;;;;67.70;40.15;;;;;;;9.04;100.00;102970.41;5071350;28;20036;-69
2021/12/15 11:07:15;;;;;;;73.38;41.33;;;;;;;9.07;100.00;102982.78;5069406;28;20090;-69
2021/12/15 11:09:45;;;;;;;70.53;40.90;;;;;;;9.04;100.00;102975.66;5071901;28;20035;-70
2021/12/15 11:12:25;;;;;;;77.82;44.90;;;;;;;9.03;100.00;102971.22;5072128;28;20472;-68
2021/12/15 11:14:54;;;;;;;75.03;43.15;;;;;;;9.07;100.00;102978.44;5070805;28;20039;-68
2021/12/15 11:17:23;;;;;;;70.00;40.70;;;;;;;9.10;100.00;102969.78;5069711;28;20119;-68
2021/12/15 11:19:48;;;;;;;72.13;42.05;;;;;;;9.15;100.00;102972.59;5071708;28;20033;-68
2021/12/15 11:22:35;;;;;;;68.88;39.00;;;;;;;9.14;100.00;102965.50;5071963;28;20120;-68
2021/12/15 11:25:05;;;;;;;69.93;41.63;;;;;;;9.15;100.00;102973.50;5069194;28;20055;-68
2021/12/15 11:27:30;;;;;;;65.80;40.42;;;;;;;9.21;100.00;102967.59;5073738;28;20047;-70
2021/12/15 11:29:56;;;;;;;69.78;43.25;;;;;;;9.18;100.00;102967.47;5074020;28;20017;-69
2021/12/15 11:32:42;;;;;;;66.22;39.80;;;;;;;9.22;100.00;102969.41;5073388;28;20052;-68
2021/12/15 11:35:21;;;;;;;70.30;43.42;;;;;;;9.23;100.00;102964.19;5072374;28;20028;-69
2021/12/15 11:37:50;;;;;;;66.70;42.25;;;;;;;9.22;100.00;102966.75;5073587;28;20382;-68
2021/12/15 11:40:23;;;;;;;66.35;39.88;;;;;;;9.27;100.00;102966.97;5073549;28;20482;-68
2021/12/15 11:42:48;;;;;;;;;;;;;;;9.36;100.00;102960.34;5070070;28;20055;-68
2021/12/15 11:45:14;;;;;;;62.67;39.28;;;;;;;9.28;100.00;102964.38;5073479;28;19908;-68
2021/12/15 11:47:41;;;;;;;64.47;41.45;;;;;;;9.27;100.00;102965.22;5069623;28;20028;-74
2021/12/15 11:50:12;;;;;;;65.55;41.08;;;;;;;9.33;100.00;102956.66;5071263;28;20132;-74
2021/12/15 11:52:41;;;;;;;60.28;39.53;;;;;;;9.34;100.00;102966.38;5069940;28;20036;-69
2021/12/15 11:55:19;;;;;;;60.88;39.65;;;;;;;9.38;100.00;102963.94;5070725;28;20078;-69
2021/12/15 11:57:45;;;;;;;64.15;40.80;;;;;;;9.38;100.00;102955.13;5068669;28;20032;-71
2021/12/15 12:00:20;;;;;;;61.17;39.38;;;;;;;9.38;100.00;102966.56;5070653;28;20499;-69
2021/12/15 12:02:51;;;;;;;59.15;37.83;;;;;;;9.39;100.00;102954.28;5068230;28;20024;-72
2021/12/15 12:05:30;;;;;;;61.42;38.00;;;;;;;9.41;100.00;102957.91;5067041;28;20020;-73
2021/12/15 12:07:59;;;;;;;60.22;38.97;;;;;;;9.38;100.00;102957.78;5069671;28;20071;-76
2021/12/15 12:10:45;;;;;;;56.92;36.95;;;;;;;9.42;100.00;102954.41;5070138;28;20024;-76
2021/12/15 12:13:23;;;;;;;57.35;37.00;;;;;;;9.47;100.00;102957.25;5070492;28;20502;-74
2021/12/15 12:15:53;;;;;;;59.92;37.67;;;;;;;9.47;100.00;102947.59;5068100;28;20037;-71
2021/12/15 12:18:24;;;;;;;56.55;37.28;;;;;;;9.51;100.00;102948.59;5069300;28;20040;-76
2021/12/15 12:20:53;;;;;;;56.90;37.92;;;;;;;9.53;100.00;102941.66;5070219;28;20040;-71
2021/12/15 12:23:22;;;;;;;55.10;34.90;;;;;;;9.61;100.00;102945.53;5069051;28;20430;-71
2021/12/15 12:25:51;;;;;;;56.17;37.80;;;;;;;9.62;100.00;102949.06;5066883;28;20032;-73
2021/12/15 12:28:22;;;;;;;56.05;38.53;;;;;;;9.58;100.00;102946.31;5066242;28;20012;-71
2021/12/15 12:30:52;;;;;;;59.72;37.15;;;;;;;9.54;100.00;102938.22;5066412;28;20036;-69
2021/12/15 12:33:20;;;;;;;55.38;36.88;;;;;;;9.53;100.00;102942.56;5069095;28;20017;-70
2021/12/15 12:35:49;;;;;;;50.38;33.00;;;;;;;9.57;100.00;102936.56;5067755;28;20062;-69